sensor_id;sensor_type;location;lat;lon;timestamp;P1;durP1;ratioP1;P2;durP2;ratioP2
32780;SDS011;19136;47.032;15.502;2022-08-19T00:00:15;13.15;;;3.05;;
32780;SDS011;19136;47.032;15.502;2022-08-19T00:02:41;16.17;;;3.67;;
32780;SDS011;19136;47.032;15.502;2022-08-19T00:05:07;13.63;;;3.45;;
32780;SDS011;19136;47.032;15.502;2022-08-19T00:07:34;10.75;;;3.13;;
32780;SDS011;19136;47.032;15.502;2022-08-19T00:10:00;13.93;;;3.28;;
32780;SDS011;19136;47.032;15.502;2022-08-19T00:12:26;11.48;;;3.38;;
32780;SDS011;19136;47.032;15.502;2022-08-19T00:14:51;8.70;;;3.20;;
32780;SDS011;19136;47.032;15.502;2022-08-19T00:17:19;13.85;;;2.97;;
32780;SDS011;19136;47.032;15.502;2022-08-19T00:19:45;12.20;;;3.33;;
32780;SDS011;19136;47.032;15.502;2022-08-19T00:22:10;9.43;;;3.13;;
32780;SDS011;19136;47.032;15.502;2022-08-19T00:24:36;21.20;;;3.35;;
32780;SDS011;19136;47.032;15.502;2022-08-19T00:27:03;9.45;;;3.50;;
32780;SDS011;19136;47.032;15.502;2022-08-19T00:29:30;12.32;;;3.05;;
32780;SDS011;19136;47.032;15.502;2022-08-19T00:31:56;11.75;;;2.95;;
32780;SDS011;19136;47.032;15.502;2022-08-19T00:34:23;10.63;;;3.28;;
32780;SDS011;19136;47.032;15.502;2022-08-19T00:36:51;16.67;;;3.67;;
32780;SDS011;19136;47.032;15.502;2022-08-19T00:39:17;10.88;;;3.17;;
32780;SDS011;19136;47.032;15.502;2022-08-19T00:41:43;11.40;;;2.72;;
32780;SDS011;19136;47.032;15.502;2022-08-19T00:44:15;8.25;;;3.00;;
32780;SDS011;19136;47.032;15.502;2022-08-19T00:46:45;11.85;;;3.05;;
32780;SDS011;19136;47.032;15.502;2022-08-19T00:51:40;16.70;;;3.35;;
32780;SDS011;19136;47.032;15.502;2022-08-19T00:54:07;9.85;;;2.97;;
32780;SDS011;19136;47.032;15.502;2022-08-19T00:56:34;10.98;;;3.42;;
32780;SDS011;19136;47.032;15.502;2022-08-19T00:59:01;11.68;;;3.22;;
32780;SDS011;19136;47.032;15.502;2022-08-19T01:01:27;13.82;;;3.95;;
32780;SDS011;19136;47.032;15.502;2022-08-19T01:03:53;9.77;;;3.33;;
32780;SDS011;19136;47.032;15.502;2022-08-19T01:06:19;14.95;;;3.42;;
32780;SDS011;19136;47.032;15.502;2022-08-19T01:08:45;12.85;;;3.30;;
32780;SDS011;19136;47.032;15.502;2022-08-19T01:11:10;11.35;;;2.92;;
32780;SDS011;19136;47.032;15.502;2022-08-19T01:13:37;10.88;;;3.08;;
32780;SDS011;19136;47.032;15.502;2022-08-19T01:16:04;14.23;;;3.08;;
32780;SDS011;19136;47.032;15.502;2022-08-19T01:18:32;10.23;;;3.05;;
32780;SDS011;19136;47.032;15.502;2022-08-19T01:21:08;13.18;;;3.40;;
32780;SDS011;19136;47.032;15.502;2022-08-19T01:23:36;12.43;;;3.58;;
32780;SDS011;19136;47.032;15.502;2022-08-19T01:26:12;9.20;;;3.00;;
32780;SDS011;19136;47.032;15.502;2022-08-19T01:28:40;13.52;;;3.28;;
32780;SDS011;19136;47.032;15.502;2022-08-19T01:31:08;16.77;;;3.42;;
32780;SDS011;19136;47.032;15.502;2022-08-19T01:33:36;24.38;;;4.00;;
32780;SDS011;19136;47.032;15.502;2022-08-19T01:36:03;12.80;;;3.30;;
32780;SDS011;19136;47.032;15.502;2022-08-19T01:38:30;11.52;;;2.97;;
32780;SDS011;19136;47.032;15.502;2022-08-19T01:40:56;16.73;;;3.50;;
32780;SDS011;19136;47.032;15.502;2022-08-19T01:43:25;12.63;;;3.20;;
32780;SDS011;19136;47.032;15.502;2022-08-19T01:45:51;12.40;;;3.67;;
32780;SDS011;19136;47.032;15.502;2022-08-19T01:48:17;14.60;;;4.22;;
32780;SDS011;19136;47.032;15.502;2022-08-19T01:50:43;12.88;;;3.60;;
32780;SDS011;19136;47.032;15.502;2022-08-19T01:53:09;19.45;;;3.97;;
32780;SDS011;19136;47.032;15.502;2022-08-19T01:55:37;12.30;;;4.00;;
32780;SDS011;19136;47.032;15.502;2022-08-19T01:58:06;15.52;;;3.85;;
32780;SDS011;19136;47.032;15.502;2022-08-19T02:00:40;13.40;;;3.83;;
32780;SDS011;19136;47.032;15.502;2022-08-19T02:03:06;12.32;;;4.28;;
32780;SDS011;19136;47.032;15.502;2022-08-19T02:05:34;10.27;;;3.67;;
32780;SDS011;19136;47.032;15.502;2022-08-19T02:08:00;13.80;;;4.40;;
32780;SDS011;19136;47.032;15.502;2022-08-19T02:10:25;11.63;;;4.30;;
32780;SDS011;19136;47.032;15.502;2022-08-19T02:12:51;15.57;;;3.72;;
32780;SDS011;19136;47.032;15.502;2022-08-19T02:15:18;16.30;;;4.32;;
32780;SDS011;19136;47.032;15.502;2022-08-19T02:17:45;12.82;;;4.15;;
32780;SDS011;19136;47.032;15.502;2022-08-19T02:20:11;12.10;;;4.38;;
32780;SDS011;19136;47.032;15.502;2022-08-19T02:22:38;13.73;;;4.13;;
32780;SDS011;19136;47.032;15.502;2022-08-19T02:25:06;16.48;;;4.05;;
32780;SDS011;19136;47.032;15.502;2022-08-19T02:27:32;10.90;;;3.55;;
32780;SDS011;19136;47.032;15.502;2022-08-19T02:29:58;15.98;;;3.78;;
32780;SDS011;19136;47.032;15.502;2022-08-19T02:32:24;14.27;;;3.33;;
32780;SDS011;19136;47.032;15.502;2022-08-19T02:34:50;9.63;;;2.92;;
32780;SDS011;19136;47.032;15.502;2022-08-19T02:37:16;12.50;;;3.40;;
32780;SDS011;19136;47.032;15.502;2022-08-19T02:40:00;14.73;;;3.92;;
32780;SDS011;19136;47.032;15.502;2022-08-19T02:42:26;12.18;;;3.45;;
32780;SDS011;19136;47.032;15.502;2022-08-19T02:44:52;11.05;;;2.85;;
32780;SDS011;19136;47.032;15.502;2022-08-19T02:47:20;13.13;;;3.70;;
32780;SDS011;19136;47.032;15.502;2022-08-19T02:49:46;13.20;;;4.28;;
32780;SDS011;19136;47.032;15.502;2022-08-19T02:52:14;11.13;;;3.75;;
32780;SDS011;19136;47.032;15.502;2022-08-19T02:54:40;10.27;;;3.17;;
32780;SDS011;19136;47.032;15.502;2022-08-19T02:57:06;12.13;;;3.42;;
32780;SDS011;19136;47.032;15.502;2022-08-19T02:59:32;14.68;;;3.17;;
32780;SDS011;19136;47.032;15.502;2022-08-19T03:01:58;10.27;;;3.60;;
32780;SDS011;19136;47.032;15.502;2022-08-19T03:04:24;11.52;;;3.33;;
32780;SDS011;19136;47.032;15.502;2022-08-19T03:06:49;10.20;;;3.78;;
32780;SDS011;19136;47.032;15.502;2022-08-19T03:09:16;19.08;;;4.60;;
32780;SDS011;19136;47.032;15.502;2022-08-19T03:11:42;19.13;;;3.40;;
32780;SDS011;19136;47.032;15.502;2022-08-19T03:14:08;15.57;;;4.18;;
32780;SDS011;19136;47.032;15.502;2022-08-19T03:16:36;17.02;;;3.60;;
32780;SDS011;19136;47.032;15.502;2022-08-19T03:19:09;13.73;;;4.85;;
32780;SDS011;19136;47.032;15.502;2022-08-19T03:21:35;18.08;;;4.25;;
32780;SDS011;19136;47.032;15.502;2022-08-19T03:24:01;21.10;;;4.72;;
32780;SDS011;19136;47.032;15.502;2022-08-19T03:26:29;14.55;;;4.50;;
32780;SDS011;19136;47.032;15.502;2022-08-19T03:28:55;18.48;;;4.97;;
32780;SDS011;19136;47.032;15.502;2022-08-19T03:31:21;16.27;;;4.72;;
32780;SDS011;19136;47.032;15.502;2022-08-19T03:33:51;13.27;;;4.32;;
32780;SDS011;19136;47.032;15.502;2022-08-19T03:36:18;15.38;;;4.45;;
32780;SDS011;19136;47.032;15.502;2022-08-19T03:38:47;13.77;;;4.13;;
32780;SDS011;19136;47.032;15.502;2022-08-19T03:41:19;14.57;;;4.82;;
32780;SDS011;19136;47.032;15.502;2022-08-19T03:43:46;13.70;;;4.55;;
32780;SDS011;19136;47.032;15.502;2022-08-19T03:46:12;20.70;;;4.57;;
32780;SDS011;19136;47.032;15.502;2022-08-19T03:48:39;14.18;;;4.72;;
32780;SDS011;19136;47.032;15.502;2022-08-19T03:51:06;25.40;;;5.07;;
32780;SDS011;19136;47.032;15.502;2022-08-19T03:53:33;21.23;;;4.88;;
32780;SDS011;19136;47.032;15.502;2022-08-19T03:56:00;26.02;;;5.28;;
32780;SDS011;19136;47.032;15.502;2022-08-19T03:58:26;12.25;;;4.57;;
32780;SDS011;19136;47.032;15.502;2022-08-19T04:00:56;10.88;;;4.13;;
32780;SDS011;19136;47.032;15.502;2022-08-19T04:03:25;16.27;;;4.47;;
32780;SDS011;19136;47.032;15.502;2022-08-19T04:05:52;14.07;;;4.90;;
32780;SDS011;19136;47.032;15.502;2022-08-19T04:08:18;14.52;;;4.60;;
32780;SDS011;19136;47.032;15.502;2022-08-19T04:10:47;13.10;;;4.57;;
32780;SDS011;19136;47.032;15.502;2022-08-19T04:13:14;13.57;;;4.05;;
32780;SDS011;19136;47.032;15.502;2022-08-19T04:15:43;17.38;;;4.45;;
32780;SDS011;19136;47.032;15.502;2022-08-19T04:18:12;13.43;;;4.25;;
32780;SDS011;19136;47.032;15.502;2022-08-19T04:20:38;13.80;;;3.70;;
32780;SDS011;19136;47.032;15.502;2022-08-19T04:23:12;12.80;;;4.35;;
32780;SDS011;19136;47.032;15.502;2022-08-19T04:25:39;10.65;;;3.97;;
32780;SDS011;19136;47.032;15.502;2022-08-19T04:28:06;10.55;;;4.00;;
32780;SDS011;19136;47.032;15.502;2022-08-19T04:30:46;13.52;;;4.63;;
32780;SDS011;19136;47.032;15.502;2022-08-19T04:33:13;17.98;;;5.15;;
32780;SDS011;19136;47.032;15.502;2022-08-19T04:35:41;19.13;;;4.80;;
32780;SDS011;19136;47.032;15.502;2022-08-19T04:38:09;18.48;;;5.43;;
32780;SDS011;19136;47.032;15.502;2022-08-19T04:40:42;14.70;;;4.43;;
32780;SDS011;19136;47.032;15.502;2022-08-19T04:43:28;14.40;;;3.65;;
32780;SDS011;19136;47.032;15.502;2022-08-19T04:45:54;15.32;;;4.75;;
32780;SDS011;19136;47.032;15.502;2022-08-19T04:48:20;16.45;;;4.78;;
32780;SDS011;19136;47.032;15.502;2022-08-19T04:50:51;12.27;;;4.78;;
32780;SDS011;19136;47.032;15.502;2022-08-19T04:53:24;20.98;;;4.60;;
32780;SDS011;19136;47.032;15.502;2022-08-19T04:55:51;21.25;;;4.72;;
32780;SDS011;19136;47.032;15.502;2022-08-19T04:58:17;16.58;;;5.20;;
32780;SDS011;19136;47.032;15.502;2022-08-19T05:00:43;17.23;;;4.90;;
32780;SDS011;19136;47.032;15.502;2022-08-19T05:03:09;17.33;;;5.15;;
32780;SDS011;19136;47.032;15.502;2022-08-19T05:05:39;19.23;;;4.57;;
32780;SDS011;19136;47.032;15.502;2022-08-19T05:08:06;19.77;;;5.20;;
32780;SDS011;19136;47.032;15.502;2022-08-19T05:10:37;15.55;;;4.63;;
32780;SDS011;19136;47.032;15.502;2022-08-19T05:13:03;18.70;;;5.32;;
32780;SDS011;19136;47.032;15.502;2022-08-19T05:15:29;13.40;;;4.95;;
32780;SDS011;19136;47.032;15.502;2022-08-19T05:17:54;15.73;;;4.72;;
32780;SDS011;19136;47.032;15.502;2022-08-19T05:20:38;18.50;;;4.53;;
32780;SDS011;19136;47.032;15.502;2022-08-19T05:23:23;16.75;;;5.55;;
32780;SDS011;19136;47.032;15.502;2022-08-19T05:25:49;13.82;;;4.80;;
32780;SDS011;19136;47.032;15.502;2022-08-19T05:28:15;19.77;;;4.75;;
32780;SDS011;19136;47.032;15.502;2022-08-19T05:30:41;9.65;;;4.43;;
32780;SDS011;19136;47.032;15.502;2022-08-19T05:33:08;28.77;;;5.72;;
32780;SDS011;19136;47.032;15.502;2022-08-19T05:35:36;23.30;;;5.10;;
32780;SDS011;19136;47.032;15.502;2022-08-19T05:38:02;24.60;;;5.00;;
32780;SDS011;19136;47.032;15.502;2022-08-19T05:40:28;16.73;;;5.00;;
32780;SDS011;19136;47.032;15.502;2022-08-19T05:42:54;23.15;;;6.70;;
32780;SDS011;19136;47.032;15.502;2022-08-19T05:45:19;19.45;;;5.82;;
32780;SDS011;19136;47.032;15.502;2022-08-19T05:47:47;18.92;;;7.18;;
32780;SDS011;19136;47.032;15.502;2022-08-19T05:50:12;27.52;;;6.85;;
32780;SDS011;19136;47.032;15.502;2022-08-19T05:52:38;29.27;;;7.43;;
32780;SDS011;19136;47.032;15.502;2022-08-19T05:55:04;20.73;;;5.75;;
32780;SDS011;19136;47.032;15.502;2022-08-19T05:57:30;22.83;;;5.57;;
32780;SDS011;19136;47.032;15.502;2022-08-19T05:59:56;23.95;;;5.68;;
32780;SDS011;19136;47.032;15.502;2022-08-19T06:02:22;18.38;;;5.03;;
32780;SDS011;19136;47.032;15.502;2022-08-19T06:04:48;22.80;;;5.55;;
32780;SDS011;19136;47.032;15.502;2022-08-19T06:07:14;16.40;;;5.22;;
32780;SDS011;19136;47.032;15.502;2022-08-19T06:09:40;21.58;;;5.50;;
32780;SDS011;19136;47.032;15.502;2022-08-19T06:12:06;14.25;;;4.85;;
32780;SDS011;19136;47.032;15.502;2022-08-19T06:14:33;17.65;;;5.43;;
32780;SDS011;19136;47.032;15.502;2022-08-19T06:16:59;15.82;;;5.53;;
32780;SDS011;19136;47.032;15.502;2022-08-19T06:19:27;17.38;;;5.05;;
32780;SDS011;19136;47.032;15.502;2022-08-19T06:21:57;20.55;;;5.22;;
32780;SDS011;19136;47.032;15.502;2022-08-19T06:24:24;33.35;;;6.32;;
32780;SDS011;19136;47.032;15.502;2022-08-19T06:26:52;24.67;;;5.60;;
32780;SDS011;19136;47.032;15.502;2022-08-19T06:29:20;11.95;;;4.53;;
32780;SDS011;19136;47.032;15.502;2022-08-19T06:31:50;19.60;;;5.53;;
32780;SDS011;19136;47.032;15.502;2022-08-19T06:34:17;22.70;;;5.13;;
32780;SDS011;19136;47.032;15.502;2022-08-19T06:36:47;14.98;;;4.68;;
32780;SDS011;19136;47.032;15.502;2022-08-19T06:39:15;19.50;;;4.93;;
32780;SDS011;19136;47.032;15.502;2022-08-19T06:41:46;21.00;;;5.32;;
32780;SDS011;19136;47.032;15.502;2022-08-19T06:44:14;16.10;;;4.80;;
32780;SDS011;19136;47.032;15.502;2022-08-19T06:46:40;15.10;;;4.70;;
32780;SDS011;19136;47.032;15.502;2022-08-19T06:49:06;18.20;;;4.28;;
32780;SDS011;19136;47.032;15.502;2022-08-19T06:51:35;15.95;;;4.40;;
32780;SDS011;19136;47.032;15.502;2022-08-19T06:54:00;15.40;;;4.05;;
32780;SDS011;19136;47.032;15.502;2022-08-19T06:56:28;19.13;;;4.53;;
32780;SDS011;19136;47.032;15.502;2022-08-19T06:59:03;15.68;;;3.97;;
32780;SDS011;19136;47.032;15.502;2022-08-19T07:01:30;16.98;;;4.65;;
32780;SDS011;19136;47.032;15.502;2022-08-19T07:03:59;18.05;;;4.20;;
32780;SDS011;19136;47.032;15.502;2022-08-19T07:06:26;16.98;;;4.18;;
32780;SDS011;19136;47.032;15.502;2022-08-19T07:08:52;13.23;;;4.32;;
32780;SDS011;19136;47.032;15.502;2022-08-19T07:11:17;12.07;;;3.80;;
32780;SDS011;19136;47.032;15.502;2022-08-19T07:13:44;13.52;;;3.95;;
32780;SDS011;19136;47.032;15.502;2022-08-19T07:16:11;21.77;;;4.13;;
32780;SDS011;19136;47.032;15.502;2022-08-19T07:18:39;22.92;;;3.72;;
32780;SDS011;19136;47.032;15.502;2022-08-19T07:21:06;13.57;;;3.92;;
32780;SDS011;19136;47.032;15.502;2022-08-19T07:23:33;20.52;;;3.80;;
32780;SDS011;19136;47.032;15.502;2022-08-19T07:26:11;18.33;;;3.90;;
32780;SDS011;19136;47.032;15.502;2022-08-19T07:28:39;16.85;;;4.15;;
32780;SDS011;19136;47.032;15.502;2022-08-19T07:31:12;15.15;;;3.70;;
32780;SDS011;19136;47.032;15.502;2022-08-19T07:33:39;16.98;;;3.80;;
32780;SDS011;19136;47.032;15.502;2022-08-19T07:36:06;20.23;;;4.32;;
32780;SDS011;19136;47.032;15.502;2022-08-19T07:38:33;17.17;;;4.05;;
32780;SDS011;19136;47.032;15.502;2022-08-19T07:40:59;14.32;;;4.40;;
32780;SDS011;19136;47.032;15.502;2022-08-19T07:43:25;21.50;;;4.22;;
32780;SDS011;19136;47.032;15.502;2022-08-19T07:45:52;22.45;;;4.78;;
32780;SDS011;19136;47.032;15.502;2022-08-19T07:48:21;14.38;;;4.10;;
32780;SDS011;19136;47.032;15.502;2022-08-19T07:50:50;18.88;;;5.13;;
32780;SDS011;19136;47.032;15.502;2022-08-19T07:53:20;19.40;;;5.20;;
32780;SDS011;19136;47.032;15.502;2022-08-19T07:55:46;22.10;;;5.68;;
32780;SDS011;19136;47.032;15.502;2022-08-19T07:58:13;33.67;;;6.38;;
32780;SDS011;19136;47.032;15.502;2022-08-19T08:00:41;19.35;;;4.57;;
32780;SDS011;19136;47.032;15.502;2022-08-19T08:03:07;19.73;;;5.00;;
32780;SDS011;19136;47.032;15.502;2022-08-19T08:05:33;17.17;;;4.15;;
32780;SDS011;19136;47.032;15.502;2022-08-19T08:08:18;14.43;;;3.10;;
32780;SDS011;19136;47.032;15.502;2022-08-19T08:11:02;12.93;;;2.88;;
32780;SDS011;19136;47.032;15.502;2022-08-19T08:13:29;12.80;;;3.10;;
32780;SDS011;19136;47.032;15.502;2022-08-19T08:15:55;15.68;;;2.45;;
32780;SDS011;19136;47.032;15.502;2022-08-19T08:18:21;8.20;;;2.13;;
32780;SDS011;19136;47.032;15.502;2022-08-19T08:20:47;8.55;;;1.98;;
32780;SDS011;19136;47.032;15.502;2022-08-19T08:23:13;16.10;;;3.00;;
32780;SDS011;19136;47.032;15.502;2022-08-19T08:25:47;9.90;;;3.08;;
32780;SDS011;19136;47.032;15.502;2022-08-19T08:28:14;25.52;;;4.03;;
32780;SDS011;19136;47.032;15.502;2022-08-19T08:30:40;19.92;;;4.05;;
32780;SDS011;19136;47.032;15.502;2022-08-19T08:33:08;13.43;;;3.75;;
32780;SDS011;19136;47.032;15.502;2022-08-19T08:35:34;17.65;;;4.53;;
32780;SDS011;19136;47.032;15.502;2022-08-19T08:38:00;22.73;;;4.93;;
32780;SDS011;19136;47.032;15.502;2022-08-19T08:40:34;18.85;;;4.72;;
32780;SDS011;19136;47.032;15.502;2022-08-19T08:43:19;19.67;;;5.35;;
32780;SDS011;19136;47.032;15.502;2022-08-19T08:45:57;16.38;;;5.30;;
32780;SDS011;19136;47.032;15.502;2022-08-19T08:48:32;15.45;;;5.38;;
32780;SDS011;19136;47.032;15.502;2022-08-19T08:51:28;15.63;;;5.25;;
32780;SDS011;19136;47.032;15.502;2022-08-19T08:53:59;20.02;;;5.75;;
32780;SDS011;19136;47.032;15.502;2022-08-19T08:56:25;17.95;;;5.32;;
32780;SDS011;19136;47.032;15.502;2022-08-19T09:01:25;13.27;;;4.30;;
32780;SDS011;19136;47.032;15.502;2022-08-19T09:03:52;23.33;;;4.85;;
32780;SDS011;19136;47.032;15.502;2022-08-19T09:06:21;14.15;;;4.13;;
32780;SDS011;19136;47.032;15.502;2022-08-19T09:08:59;18.55;;;5.38;;
32780;SDS011;19136;47.032;15.502;2022-08-19T09:16:35;18.08;;;5.10;;
32780;SDS011;19136;47.032;15.502;2022-08-19T09:19:02;14.38;;;4.25;;
32780;SDS011;19136;47.032;15.502;2022-08-19T09:21:29;14.55;;;4.53;;
32780;SDS011;19136;47.032;15.502;2022-08-19T09:23:55;17.52;;;5.20;;
32780;SDS011;19136;47.032;15.502;2022-08-19T09:26:21;14.80;;;4.30;;
32780;SDS011;19136;47.032;15.502;2022-08-19T09:28:48;19.52;;;5.18;;
32780;SDS011;19136;47.032;15.502;2022-08-19T09:31:22;17.73;;;5.28;;
32780;SDS011;19136;47.032;15.502;2022-08-19T09:33:48;17.17;;;4.97;;
32780;SDS011;19136;47.032;15.502;2022-08-19T09:36:16;17.95;;;4.93;;
32780;SDS011;19136;47.032;15.502;2022-08-19T09:38:43;16.42;;;5.22;;
32780;SDS011;19136;47.032;15.502;2022-08-19T09:41:11;19.85;;;6.43;;
32780;SDS011;19136;47.032;15.502;2022-08-19T09:43:39;16.38;;;5.47;;
32780;SDS011;19136;47.032;15.502;2022-08-19T09:46:05;17.02;;;5.85;;
32780;SDS011;19136;47.032;15.502;2022-08-19T09:48:34;16.00;;;5.15;;
32780;SDS011;19136;47.032;15.502;2022-08-19T09:51:04;17.25;;;4.88;;
32780;SDS011;19136;47.032;15.502;2022-08-19T09:53:36;9.18;;;4.15;;
32780;SDS011;19136;47.032;15.502;2022-08-19T09:56:03;12.73;;;4.00;;
32780;SDS011;19136;47.032;15.502;2022-08-19T09:58:30;14.75;;;4.32;;
32780;SDS011;19136;47.032;15.502;2022-08-19T10:00:57;12.57;;;3.83;;
32780;SDS011;19136;47.032;15.502;2022-08-19T10:03:23;11.70;;;3.90;;
32780;SDS011;19136;47.032;15.502;2022-08-19T10:05:50;15.98;;;4.57;;
32780;SDS011;19136;47.032;15.502;2022-08-19T10:08:17;14.38;;;4.00;;
32780;SDS011;19136;47.032;15.502;2022-08-19T10:10:47;15.25;;;4.57;;
32780;SDS011;19136;47.032;15.502;2022-08-19T10:13:16;10.77;;;4.07;;
32780;SDS011;19136;47.032;15.502;2022-08-19T10:15:45;13.63;;;4.38;;
32780;SDS011;19136;47.032;15.502;2022-08-19T10:18:10;10.98;;;4.30;;
32780;SDS011;19136;47.032;15.502;2022-08-19T10:20:36;13.82;;;4.32;;
32780;SDS011;19136;47.032;15.502;2022-08-19T10:23:02;8.68;;;3.53;;
32780;SDS011;19136;47.032;15.502;2022-08-19T10:25:28;12.52;;;4.35;;
32780;SDS011;19136;47.032;15.502;2022-08-19T10:27:54;16.33;;;4.00;;
32780;SDS011;19136;47.032;15.502;2022-08-19T10:30:19;14.43;;;4.32;;
32780;SDS011;19136;47.032;15.502;2022-08-19T10:32:45;9.88;;;4.65;;
32780;SDS011;19136;47.032;15.502;2022-08-19T10:35:11;13.82;;;4.47;;
32780;SDS011;19136;47.032;15.502;2022-08-19T10:37:37;12.88;;;4.68;;
32780;SDS011;19136;47.032;15.502;2022-08-19T10:40:04;9.77;;;4.00;;
32780;SDS011;19136;47.032;15.502;2022-08-19T10:42:32;12.07;;;4.20;;
32780;SDS011;19136;47.032;15.502;2022-08-19T10:44:59;13.70;;;4.00;;
32780;SDS011;19136;47.032;15.502;2022-08-19T10:47:25;13.57;;;3.83;;
32780;SDS011;19136;47.032;15.502;2022-08-19T10:49:50;13.52;;;3.92;;
32780;SDS011;19136;47.032;15.502;2022-08-19T10:52:35;12.32;;;3.55;;
32780;SDS011;19136;47.032;15.502;2022-08-19T10:55:03;11.93;;;3.33;;
32780;SDS011;19136;47.032;15.502;2022-08-19T10:57:48;11.20;;;4.45;;
32780;SDS011;19136;47.032;15.502;2022-08-19T11:00:14;14.30;;;3.85;;
32780;SDS011;19136;47.032;15.502;2022-08-19T11:02:40;13.95;;;3.50;;
32780;SDS011;19136;47.032;15.502;2022-08-19T11:05:06;13.13;;;3.22;;
32780;SDS011;19136;47.032;15.502;2022-08-19T11:07:34;14.50;;;4.50;;
32780;SDS011;19136;47.032;15.502;2022-08-19T11:10:01;10.82;;;3.55;;
32780;SDS011;19136;47.032;15.502;2022-08-19T11:12:28;12.63;;;3.72;;
32780;SDS011;19136;47.032;15.502;2022-08-19T11:14:53;12.02;;;3.50;;
32780;SDS011;19136;47.032;15.502;2022-08-19T11:17:19;12.32;;;3.38;;
32780;SDS011;19136;47.032;15.502;2022-08-19T11:19:48;8.18;;;2.58;;
32780;SDS011;19136;47.032;15.502;2022-08-19T11:22:14;10.10;;;2.55;;
32780;SDS011;19136;47.032;15.502;2022-08-19T11:24:40;8.50;;;2.88;;
32780;SDS011;19136;47.032;15.502;2022-08-19T11:27:07;12.02;;;3.55;;
32780;SDS011;19136;47.032;15.502;2022-08-19T11:29:39;11.70;;;3.10;;
32780;SDS011;19136;47.032;15.502;2022-08-19T11:32:05;8.25;;;2.40;;
32780;SDS011;19136;47.032;15.502;2022-08-19T11:34:34;9.43;;;2.58;;
32780;SDS011;19136;47.032;15.502;2022-08-19T11:37:00;12.65;;;2.95;;
32780;SDS011;19136;47.032;15.502;2022-08-19T11:39:27;16.33;;;2.95;;
32780;SDS011;19136;47.032;15.502;2022-08-19T11:41:57;15.45;;;2.67;;
32780;SDS011;19136;47.032;15.502;2022-08-19T11:44:23;7.13;;;2.67;;
32780;SDS011;19136;47.032;15.502;2022-08-19T11:46:49;13.23;;;2.90;;
32780;SDS011;19136;47.032;15.502;2022-08-19T11:49:15;14.45;;;2.30;;
32780;SDS011;19136;47.032;15.502;2022-08-19T11:51:44;9.02;;;2.80;;
32780;SDS011;19136;47.032;15.502;2022-08-19T11:54:10;10.23;;;2.88;;
32780;SDS011;19136;47.032;15.502;2022-08-19T11:56:37;10.20;;;2.83;;
32780;SDS011;19136;47.032;15.502;2022-08-19T11:59:03;9.32;;;2.30;;
32780;SDS011;19136;47.032;15.502;2022-08-19T12:01:29;13.02;;;3.10;;
32780;SDS011;19136;47.032;15.502;2022-08-19T12:03:55;12.43;;;2.80;;
32780;SDS011;19136;47.032;15.502;2022-08-19T12:06:23;14.90;;;2.95;;
32780;SDS011;19136;47.032;15.502;2022-08-19T12:08:57;12.30;;;2.67;;
32780;SDS011;19136;47.032;15.502;2022-08-19T12:11:24;10.40;;;3.33;;
32780;SDS011;19136;47.032;15.502;2022-08-19T12:13:50;8.43;;;2.97;;
32780;SDS011;19136;47.032;15.502;2022-08-19T12:16:17;13.00;;;3.08;;
32780;SDS011;19136;47.032;15.502;2022-08-19T12:18:44;11.02;;;2.97;;
32780;SDS011;19136;47.032;15.502;2022-08-19T12:21:18;12.60;;;2.63;;
32780;SDS011;19136;47.032;15.502;2022-08-19T12:23:46;7.93;;;2.45;;
32780;SDS011;19136;47.032;15.502;2022-08-19T12:26:13;9.85;;;3.63;;
32780;SDS011;19136;47.032;15.502;2022-08-19T12:28:39;12.55;;;3.03;;
32780;SDS011;19136;47.032;15.502;2022-08-19T12:31:05;11.98;;;2.25;;
32780;SDS011;19136;47.032;15.502;2022-08-19T12:33:31;11.18;;;2.95;;
32780;SDS011;19136;47.032;15.502;2022-08-19T12:35:59;17.00;;;3.42;;
32780;SDS011;19136;47.032;15.502;2022-08-19T12:38:29;8.60;;;2.55;;
32780;SDS011;19136;47.032;15.502;2022-08-19T12:40:55;12.15;;;2.85;;
32780;SDS011;19136;47.032;15.502;2022-08-19T12:43:21;12.52;;;3.03;;
32780;SDS011;19136;47.032;15.502;2022-08-19T12:45:46;8.98;;;2.40;;
32780;SDS011;19136;47.032;15.502;2022-08-19T12:48:12;13.93;;;3.15;;
32780;SDS011;19136;47.032;15.502;2022-08-19T12:50:43;14.30;;;3.40;;
32780;SDS011;19136;47.032;15.502;2022-08-19T12:53:13;11.70;;;3.05;;
32780;SDS011;19136;47.032;15.502;2022-08-19T12:55:39;11.98;;;2.53;;
32780;SDS011;19136;47.032;15.502;2022-08-19T12:58:05;9.70;;;2.78;;
32780;SDS011;19136;47.032;15.502;2022-08-19T13:00:30;12.50;;;3.03;;
32780;SDS011;19136;47.032;15.502;2022-08-19T13:02:59;21.35;;;3.53;;
32780;SDS011;19136;47.032;15.502;2022-08-19T13:05:26;16.80;;;2.60;;
32780;SDS011;19136;47.032;15.502;2022-08-19T13:07:54;12.10;;;2.45;;
32780;SDS011;19136;47.032;15.502;2022-08-19T13:10:21;17.40;;;3.03;;
32780;SDS011;19136;47.032;15.502;2022-08-19T13:12:49;16.45;;;2.90;;
32780;SDS011;19136;47.032;15.502;2022-08-19T13:15:16;14.07;;;3.08;;
32780;SDS011;19136;47.032;15.502;2022-08-19T13:17:45;9.80;;;2.75;;
32780;SDS011;19136;47.032;15.502;2022-08-19T13:20:13;12.02;;;2.88;;
32780;SDS011;19136;47.032;15.502;2022-08-19T13:22:39;13.27;;;3.05;;
32780;SDS011;19136;47.032;15.502;2022-08-19T13:25:05;12.30;;;2.67;;
32780;SDS011;19136;47.032;15.502;2022-08-19T13:27:31;10.95;;;2.70;;
32780;SDS011;19136;47.032;15.502;2022-08-19T13:29:57;14.25;;;3.33;;
32780;SDS011;19136;47.032;15.502;2022-08-19T13:32:41;16.67;;;2.90;;
32780;SDS011;19136;47.032;15.502;2022-08-19T13:35:25;13.00;;;3.10;;
32780;SDS011;19136;47.032;15.502;2022-08-19T13:37:51;15.82;;;3.33;;
32780;SDS011;19136;47.032;15.502;2022-08-19T13:40:21;11.68;;;2.95;;
32780;SDS011;19136;47.032;15.502;2022-08-19T13:42:50;13.97;;;3.20;;
32780;SDS011;19136;47.032;15.502;2022-08-19T13:45:20;7.22;;;2.63;;
32780;SDS011;19136;47.032;15.502;2022-08-19T13:47:47;13.85;;;2.60;;
32780;SDS011;19136;47.032;15.502;2022-08-19T13:50:18;11.90;;;2.60;;
32780;SDS011;19136;47.032;15.502;2022-08-19T13:52:46;10.60;;;3.10;;
32780;SDS011;19136;47.032;15.502;2022-08-19T13:55:12;13.68;;;2.75;;
32780;SDS011;19136;47.032;15.502;2022-08-19T13:57:38;12.73;;;2.40;;
32780;SDS011;19136;47.032;15.502;2022-08-19T14:00:15;11.00;;;2.38;;
32780;SDS011;19136;47.032;15.502;2022-08-19T14:02:45;13.18;;;2.70;;
32780;SDS011;19136;47.032;15.502;2022-08-19T14:05:13;12.60;;;2.70;;
32780;SDS011;19136;47.032;15.502;2022-08-19T14:07:39;13.43;;;3.03;;
32780;SDS011;19136;47.032;15.502;2022-08-19T14:10:06;16.80;;;3.45;;
32780;SDS011;19136;47.032;15.502;2022-08-19T14:12:34;13.80;;;3.33;;
32780;SDS011;19136;47.032;15.502;2022-08-19T14:15:01;15.35;;;3.13;;
32780;SDS011;19136;47.032;15.502;2022-08-19T14:17:28;10.20;;;3.00;;
32780;SDS011;19136;47.032;15.502;2022-08-19T14:20:03;15.40;;;3.33;;
32780;SDS011;19136;47.032;15.502;2022-08-19T14:22:35;15.95;;;3.17;;
32780;SDS011;19136;47.032;15.502;2022-08-19T14:25:01;15.35;;;3.20;;
32780;SDS011;19136;47.032;15.502;2022-08-19T14:27:26;11.30;;;2.75;;
32780;SDS011;19136;47.032;15.502;2022-08-19T14:29:52;14.20;;;3.05;;
32780;SDS011;19136;47.032;15.502;2022-08-19T14:32:18;15.07;;;3.47;;
32780;SDS011;19136;47.032;15.502;2022-08-19T14:34:43;13.50;;;3.17;;
32780;SDS011;19136;47.032;15.502;2022-08-19T14:37:11;11.68;;;2.75;;